Página principal
METAR-TAF:

METAR-TAF

Aeroportos :

Xangai-Pudong, China

Aeroporto Internacional de Xangai Pudong

latitude: 31-07N, longitude: 121-46E, altura: 4 m

Observação actual do tempo

O boletim foi feito há 34 minutos, às 13:00 UTC
Vento 6 kt de sul
Temperatura 11°C
Humidade 76%
Pressão 1023 hPa
Visibilidade: 6000 m
Nuvens fragmentadasa uma altura de 4000 ft

METAR: ZSPD 251300Z 19003MPS 6000 BKN040 11/07 Q1023 NOSIG

Hora: 21:34 (13:34 UTC)

Previsão

O boletim foi feito há 4 horas e 14 minutos, às 09:20 UTC
Previsão válida de 25 às 12 UTC a 26 às 12 UTC
Vento 8 kt de noroeste
Visibilidade: 5000 m
Nuvens dispersasa uma altura de 2000 ft
neblina

TAF: ZSPD 250920Z 2512/2612 32004MPS 5000 BR SCT020 TX17/2606Z TN08/2521Z

Observações e previsões do tempo de mais de 4000 aeroportos (mensagens METAR e TAF).

As estações disponíveis são os pontos amarelos e vermelhos sobre o mapa.

Mova o rato sobre o mapa para ver o nome da estação.

Depois clique no ponto para visualizar as observações e previsões meteorológicas.

Para alterar o mapa : clique nos botões verdes com uma cruz preta para aumentar o zoom; no botão verde com uma pitada de zoom; ou nas setas verdes para mapas adjacentes.


METAR-TAF: